sensor_id;sensor_type;location;lat;lon;timestamp;temperature;humidity
15162;DHT22;7681;48.900;9.182;2023-12-22T00:00:20;8.00;99.90
15162;DHT22;7681;48.900;9.182;2023-12-22T00:02:53;7.90;99.90
15162;DHT22;7681;48.900;9.182;2023-12-22T00:05:25;7.90;99.90
15162;DHT22;7681;48.900;9.182;2023-12-22T00:08:00;8.00;99.90
15162;DHT22;7681;48.900;9.182;2023-12-22T00:10:36;8.00;99.90
15162;DHT22;7681;48.900;9.182;2023-12-22T00:13:11;8.00;99.90
15162;DHT22;7681;48.900;9.182;2023-12-22T00:15:44;8.10;99.90
15162;DHT22;7681;48.900;9.182;2023-12-22T00:18:20;8.10;99.90
15162;DHT22;7681;48.900;9.182;2023-12-22T00:20:51;7.60;99.90
15162;DHT22;7681;48.900;9.182;2023-12-22T00:23:27;8.00;99.90
15162;DHT22;7681;48.900;9.182;2023-12-22T00:26:00;8.00;99.90
15162;DHT22;7681;48.900;9.182;2023-12-22T00:28:38;8.00;99.90
15162;DHT22;7681;48.900;9.182;2023-12-22T00:31:09;8.00;99.90
15162;DHT22;7681;48.900;9.182;2023-12-22T00:33:42;7.90;99.90
15162;DHT22;7681;48.900;9.182;2023-12-22T00:36:14;7.80;99.90
15162;DHT22;7681;48.900;9.182;2023-12-22T00:38:45;7.70;99.90
15162;DHT22;7681;48.900;9.182;2023-12-22T00:41:30;7.70;99.90
15162;DHT22;7681;48.900;9.182;2023-12-22T00:44:08;7.70;99.90
15162;DHT22;7681;48.900;9.182;2023-12-22T00:46:43;7.50;99.90
15162;DHT22;7681;48.900;9.182;2023-12-22T00:49:30;7.50;99.90
15162;DHT22;7681;48.900;9.182;2023-12-22T00:52:03;7.10;99.90
15162;DHT22;7681;48.900;9.182;2023-12-22T00:54:37;7.00;99.90
15162;DHT22;7681;48.900;9.182;2023-12-22T00:57:09;6.90;99.90
15162;DHT22;7681;48.900;9.182;2023-12-22T00:59:43;6.80;99.90
15162;DHT22;7681;48.900;9.182;2023-12-22T01:02:15;6.70;99.90
15162;DHT22;7681;48.900;9.182;2023-12-22T01:04:47;6.70;99.90
15162;DHT22;7681;48.900;9.182;2023-12-22T01:07:23;6.60;99.90
15162;DHT22;7681;48.900;9.182;2023-12-22T01:09:54;6.50;99.90
15162;DHT22;7681;48.900;9.182;2023-12-22T01:12:30;6.40;99.90
15162;DHT22;7681;48.900;9.182;2023-12-22T01:15:03;6.40;99.90
15162;DHT22;7681;48.900;9.182;2023-12-22T01:17:33;6.50;99.90
15162;DHT22;7681;48.900;9.182;2023-12-22T01:20:05;6.50;99.90
15162;DHT22;7681;48.900;9.182;2023-12-22T01:22:44;6.60;99.90
15162;DHT22;7681;48.900;9.182;2023-12-22T01:25:16;6.70;99.90
15162;DHT22;7681;48.900;9.182;2023-12-22T01:27:50;6.80;99.90
15162;DHT22;7681;48.900;9.182;2023-12-22T01:30:23;6.80;99.90
15162;DHT22;7681;48.900;9.182;2023-12-22T01:32:53;6.90;99.90
15162;DHT22;7681;48.900;9.182;2023-12-22T01:35:23;7.00;99.90
15162;DHT22;7681;48.900;9.182;2023-12-22T01:37:55;7.00;99.90
15162;DHT22;7681;48.900;9.182;2023-12-22T01:40:25;7.10;99.90
15162;DHT22;7681;48.900;9.182;2023-12-22T01:42:56;7.20;99.90
15162;DHT22;7681;48.900;9.182;2023-12-22T01:45:33;7.20;99.90
15162;DHT22;7681;48.900;9.182;2023-12-22T01:48:04;7.20;99.90
15162;DHT22;7681;48.900;9.182;2023-12-22T01:50:42;7.30;99.90
15162;DHT22;7681;48.900;9.182;2023-12-22T01:53:15;7.30;99.90
15162;DHT22;7681;48.900;9.182;2023-12-22T01:55:46;7.40;99.90
15162;DHT22;7681;48.900;9.182;2023-12-22T01:58:28;7.40;99.90
15162;DHT22;7681;48.900;9.182;2023-12-22T02:01:03;7.40;99.90
15162;DHT22;7681;48.900;9.182;2023-12-22T02:03:33;7.40;99.90
15162;DHT22;7681;48.900;9.182;2023-12-22T02:06:08;7.40;99.90
15162;DHT22;7681;48.900;9.182;2023-12-22T02:08:41;7.50;99.90
15162;DHT22;7681;48.900;9.182;2023-12-22T02:11:12;7.40;99.90
15162;DHT22;7681;48.900;9.182;2023-12-22T02:13:44;7.40;99.90
15162;DHT22;7681;48.900;9.182;2023-12-22T02:16:20;7.50;99.90
15162;DHT22;7681;48.900;9.182;2023-12-22T02:18:55;7.60;99.90
15162;DHT22;7681;48.900;9.182;2023-12-22T02:21:28;7.60;99.90
15162;DHT22;7681;48.900;9.182;2023-12-22T02:24:06;7.60;99.90
15162;DHT22;7681;48.900;9.182;2023-12-22T02:26:43;7.50;99.90
15162;DHT22;7681;48.900;9.182;2023-12-22T02:29:16;7.50;99.90
15162;DHT22;7681;48.900;9.182;2023-12-22T02:31:49;7.50;99.90
15162;DHT22;7681;48.900;9.182;2023-12-22T02:34:23;7.60;99.90
15162;DHT22;7681;48.900;9.182;2023-12-22T02:36:54;7.50;99.90
15162;DHT22;7681;48.900;9.182;2023-12-22T02:39:30;7.60;99.90
15162;DHT22;7681;48.900;9.182;2023-12-22T02:42:00;7.50;99.90
15162;DHT22;7681;48.900;9.182;2023-12-22T02:44:33;7.50;99.90
15162;DHT22;7681;48.900;9.182;2023-12-22T02:47:04;7.40;99.90
15162;DHT22;7681;48.900;9.182;2023-12-22T02:49:35;7.40;99.90
15162;DHT22;7681;48.900;9.182;2023-12-22T02:52:06;7.40;99.90
15162;DHT22;7681;48.900;9.182;2023-12-22T02:54:41;7.40;99.90
15162;DHT22;7681;48.900;9.182;2023-12-22T02:57:12;7.50;99.90
15162;DHT22;7681;48.900;9.182;2023-12-22T02:59:49;7.40;99.90
15162;DHT22;7681;48.900;9.182;2023-12-22T03:02:19;7.40;99.90
15162;DHT22;7681;48.900;9.182;2023-12-22T03:04:50;7.40;99.90
15162;DHT22;7681;48.900;9.182;2023-12-22T03:07:20;7.40;99.90
15162;DHT22;7681;48.900;9.182;2023-12-22T03:09:53;7.40;99.90
15162;DHT22;7681;48.900;9.182;2023-12-22T03:12:27;7.50;99.90
15162;DHT22;7681;48.900;9.182;2023-12-22T03:15:01;7.50;99.90
15162;DHT22;7681;48.900;9.182;2023-12-22T03:17:37;7.50;99.90
15162;DHT22;7681;48.900;9.182;2023-12-22T03:20:09;7.50;99.90
15162;DHT22;7681;48.900;9.182;2023-12-22T03:22:42;7.50;99.90
15162;DHT22;7681;48.900;9.182;2023-12-22T03:25:19;7.50;99.90
15162;DHT22;7681;48.900;9.182;2023-12-22T03:27:51;7.50;99.90
15162;DHT22;7681;48.900;9.182;2023-12-22T03:30:23;7.50;99.90
15162;DHT22;7681;48.900;9.182;2023-12-22T03:32:53;7.60;99.90
15162;DHT22;7681;48.900;9.182;2023-12-22T03:35:23;7.60;99.90
15162;DHT22;7681;48.900;9.182;2023-12-22T03:37:55;7.70;99.90
15162;DHT22;7681;48.900;9.182;2023-12-22T03:40:29;7.70;99.90
15162;DHT22;7681;48.900;9.182;2023-12-22T03:43:01;7.70;99.90
15162;DHT22;7681;48.900;9.182;2023-12-22T03:45:37;7.70;99.90
15162;DHT22;7681;48.900;9.182;2023-12-22T03:48:09;7.70;99.90
15162;DHT22;7681;48.900;9.182;2023-12-22T03:50:46;7.70;99.90
15162;DHT22;7681;48.900;9.182;2023-12-22T03:53:20;7.70;99.90
15162;DHT22;7681;48.900;9.182;2023-12-22T03:55:57;7.70;99.90
15162;DHT22;7681;48.900;9.182;2023-12-22T03:58:30;7.70;99.90
15162;DHT22;7681;48.900;9.182;2023-12-22T04:01:00;7.70;99.90
15162;DHT22;7681;48.900;9.182;2023-12-22T04:03:31;7.70;99.90
15162;DHT22;7681;48.900;9.182;2023-12-22T04:06:06;7.60;99.90
15162;DHT22;7681;48.900;9.182;2023-12-22T04:08:38;7.40;99.90
15162;DHT22;7681;48.900;9.182;2023-12-22T04:11:26;7.10;99.90
15162;DHT22;7681;48.900;9.182;2023-12-22T04:13:56;6.80;99.90
15162;DHT22;7681;48.900;9.182;2023-12-22T04:16:28;6.60;99.90
15162;DHT22;7681;48.900;9.182;2023-12-22T04:18:59;6.50;99.90
15162;DHT22;7681;48.900;9.182;2023-12-22T04:21:29;6.40;99.90
15162;DHT22;7681;48.900;9.182;2023-12-22T04:23:59;6.30;99.90
15162;DHT22;7681;48.900;9.182;2023-12-22T04:26:33;6.30;99.90
15162;DHT22;7681;48.900;9.182;2023-12-22T04:29:04;6.60;99.90
15162;DHT22;7681;48.900;9.182;2023-12-22T04:31:37;6.40;99.90
15162;DHT22;7681;48.900;9.182;2023-12-22T04:34:07;6.30;99.90
15162;DHT22;7681;48.900;9.182;2023-12-22T04:36:37;6.40;99.90
15162;DHT22;7681;48.900;9.182;2023-12-22T04:39:08;6.30;99.90
15162;DHT22;7681;48.900;9.182;2023-12-22T04:41:42;6.50;99.90
15162;DHT22;7681;48.900;9.182;2023-12-22T04:44:12;6.60;99.90
15162;DHT22;7681;48.900;9.182;2023-12-22T04:46:44;6.70;99.90
15162;DHT22;7681;48.900;9.182;2023-12-22T04:49:26;6.70;99.90
15162;DHT22;7681;48.900;9.182;2023-12-22T04:52:02;6.70;99.90
15162;DHT22;7681;48.900;9.182;2023-12-22T04:54:34;6.80;99.90
15162;DHT22;7681;48.900;9.182;2023-12-22T04:57:12;6.80;99.90
15162;DHT22;7681;48.900;9.182;2023-12-22T04:59:45;6.80;99.90
15162;DHT22;7681;48.900;9.182;2023-12-22T05:02:15;6.80;99.90
15162;DHT22;7681;48.900;9.182;2023-12-22T05:04:52;6.90;99.90
15162;DHT22;7681;48.900;9.182;2023-12-22T05:07:25;7.00;99.90
15162;DHT22;7681;48.900;9.182;2023-12-22T05:09:59;7.00;99.90
15162;DHT22;7681;48.900;9.182;2023-12-22T05:12:35;7.00;99.90
15162;DHT22;7681;48.900;9.182;2023-12-22T05:15:12;7.00;99.90
15162;DHT22;7681;48.900;9.182;2023-12-22T05:17:46;7.00;99.90
15162;DHT22;7681;48.900;9.182;2023-12-22T05:20:35;7.00;99.90
15162;DHT22;7681;48.900;9.182;2023-12-22T05:23:05;7.10;99.90
15162;DHT22;7681;48.900;9.182;2023-12-22T05:25:39;7.10;99.90
15162;DHT22;7681;48.900;9.182;2023-12-22T05:28:13;7.10;99.90
15162;DHT22;7681;48.900;9.182;2023-12-22T05:30:47;7.20;99.90
15162;DHT22;7681;48.900;9.182;2023-12-22T05:33:26;7.10;99.90
15162;DHT22;7681;48.900;9.182;2023-12-22T05:36:05;7.10;99.90
15162;DHT22;7681;48.900;9.182;2023-12-22T05:38:43;7.10;99.90
15162;DHT22;7681;48.900;9.182;2023-12-22T05:41:22;7.10;99.90
15162;DHT22;7681;48.900;9.182;2023-12-22T05:43:55;7.10;99.90
15162;DHT22;7681;48.900;9.182;2023-12-22T05:46:25;7.10;99.90
15162;DHT22;7681;48.900;9.182;2023-12-22T05:49:00;7.10;99.90
15162;DHT22;7681;48.900;9.182;2023-12-22T05:51:37;7.10;99.90
15162;DHT22;7681;48.900;9.182;2023-12-22T05:54:08;7.20;99.90
15162;DHT22;7681;48.900;9.182;2023-12-22T05:56:38;7.20;99.90
15162;DHT22;7681;48.900;9.182;2023-12-22T05:59:12;7.60;99.90
15162;DHT22;7681;48.900;9.182;2023-12-22T06:01:42;7.30;99.90
15162;DHT22;7681;48.900;9.182;2023-12-22T06:04:15;7.40;99.90
15162;DHT22;7681;48.900;9.182;2023-12-22T06:06:49;7.40;99.90
15162;DHT22;7681;48.900;9.182;2023-12-22T06:09:22;7.50;99.90
15162;DHT22;7681;48.900;9.182;2023-12-22T06:11:53;7.60;99.90
15162;DHT22;7681;48.900;9.182;2023-12-22T06:14:28;7.60;99.90
15162;DHT22;7681;48.900;9.182;2023-12-22T06:17:10;7.80;99.90
15162;DHT22;7681;48.900;9.182;2023-12-22T06:19:40;7.60;99.90
15162;DHT22;7681;48.900;9.182;2023-12-22T06:22:11;7.60;99.90
15162;DHT22;7681;48.900;9.182;2023-12-22T06:24:41;7.60;99.90
15162;DHT22;7681;48.900;9.182;2023-12-22T06:27:16;7.60;99.90
15162;DHT22;7681;48.900;9.182;2023-12-22T06:29:52;7.50;99.90
15162;DHT22;7681;48.900;9.182;2023-12-22T06:32:29;7.50;99.90
15162;DHT22;7681;48.900;9.182;2023-12-22T06:35:00;7.40;99.90
15162;DHT22;7681;48.900;9.182;2023-12-22T06:37:34;7.50;99.90
15162;DHT22;7681;48.900;9.182;2023-12-22T06:40:09;7.50;99.90
15162;DHT22;7681;48.900;9.182;2023-12-22T06:42:47;7.50;99.90
15162;DHT22;7681;48.900;9.182;2023-12-22T06:45:22;7.50;99.90
15162;DHT22;7681;48.900;9.182;2023-12-22T06:47:52;7.60;99.90
15162;DHT22;7681;48.900;9.182;2023-12-22T06:50:25;7.60;99.90
15162;DHT22;7681;48.900;9.182;2023-12-22T06:52:57;7.60;99.90
15162;DHT22;7681;48.900;9.182;2023-12-22T06:55:43;7.70;99.90
15162;DHT22;7681;48.900;9.182;2023-12-22T06:58:13;7.70;99.90
15162;DHT22;7681;48.900;9.182;2023-12-22T07:00:47;7.70;99.90
15162;DHT22;7681;48.900;9.182;2023-12-22T07:03:24;7.70;99.90
15162;DHT22;7681;48.900;9.182;2023-12-22T07:05:55;7.70;99.90
15162;DHT22;7681;48.900;9.182;2023-12-22T07:08:28;7.70;99.90
15162;DHT22;7681;48.900;9.182;2023-12-22T07:11:00;7.70;99.90
15162;DHT22;7681;48.900;9.182;2023-12-22T07:13:30;7.70;99.90
15162;DHT22;7681;48.900;9.182;2023-12-22T07:16:06;7.70;99.90
15162;DHT22;7681;48.900;9.182;2023-12-22T07:18:42;7.70;99.90
15162;DHT22;7681;48.900;9.182;2023-12-22T07:21:16;7.70;99.90
15162;DHT22;7681;48.900;9.182;2023-12-22T07:23:48;7.60;99.90
15162;DHT22;7681;48.900;9.182;2023-12-22T07:26:19;7.60;99.90
15162;DHT22;7681;48.900;9.182;2023-12-22T07:28:51;7.70;99.90
15162;DHT22;7681;48.900;9.182;2023-12-22T07:31:24;7.90;99.90
15162;DHT22;7681;48.900;9.182;2023-12-22T07:33:57;7.70;99.90
15162;DHT22;7681;48.900;9.182;2023-12-22T07:36:28;7.60;99.90
15162;DHT22;7681;48.900;9.182;2023-12-22T07:38:58;7.70;99.90
15162;DHT22;7681;48.900;9.182;2023-12-22T07:41:28;7.60;99.90
15162;DHT22;7681;48.900;9.182;2023-12-22T07:44:05;7.60;99.90
15162;DHT22;7681;48.900;9.182;2023-12-22T07:46:39;7.60;99.90
15162;DHT22;7681;48.900;9.182;2023-12-22T07:49:17;7.70;99.90
15162;DHT22;7681;48.900;9.182;2023-12-22T07:51:49;7.80;99.90
15162;DHT22;7681;48.900;9.182;2023-12-22T07:54:25;7.70;99.90
15162;DHT22;7681;48.900;9.182;2023-12-22T07:56:55;7.70;99.90
15162;DHT22;7681;48.900;9.182;2023-12-22T07:59:25;8.00;99.90
15162;DHT22;7681;48.900;9.182;2023-12-22T08:02:01;7.00;99.90
15162;DHT22;7681;48.900;9.182;2023-12-22T08:04:32;7.60;99.90
15162;DHT22;7681;48.900;9.182;2023-12-22T08:07:05;7.60;99.90
15162;DHT22;7681;48.900;9.182;2023-12-22T08:09:42;7.60;99.90
15162;DHT22;7681;48.900;9.182;2023-12-22T08:12:13;7.30;99.90
15162;DHT22;7681;48.900;9.182;2023-12-22T08:14:49;7.20;99.90
15162;DHT22;7681;48.900;9.182;2023-12-22T08:17:24;7.10;99.90
15162;DHT22;7681;48.900;9.182;2023-12-22T08:19:56;7.00;99.90
15162;DHT22;7681;48.900;9.182;2023-12-22T08:22:38;7.00;99.90
15162;DHT22;7681;48.900;9.182;2023-12-22T08:25:12;6.90;99.90
15162;DHT22;7681;48.900;9.182;2023-12-22T08:27:47;7.30;99.90
15162;DHT22;7681;48.900;9.182;2023-12-22T08:30:17;6.90;99.90
15162;DHT22;7681;48.900;9.182;2023-12-22T08:33:06;6.90;99.90
15162;DHT22;7681;48.900;9.182;2023-12-22T08:35:42;6.80;99.90
15162;DHT22;7681;48.900;9.182;2023-12-22T08:38:12;6.80;99.90
15162;DHT22;7681;48.900;9.182;2023-12-22T08:40:44;6.80;99.90
15162;DHT22;7681;48.900;9.182;2023-12-22T08:43:33;6.80;99.90
15162;DHT22;7681;48.900;9.182;2023-12-22T08:46:05;6.80;99.90
15162;DHT22;7681;48.900;9.182;2023-12-22T08:48:39;6.80;99.90
15162;DHT22;7681;48.900;9.182;2023-12-22T08:51:10;6.80;99.90
15162;DHT22;7681;48.900;9.182;2023-12-22T08:53:47;6.80;99.90
15162;DHT22;7681;48.900;9.182;2023-12-22T08:56:19;6.80;99.90
15162;DHT22;7681;48.900;9.182;2023-12-22T08:58:54;6.80;99.90
15162;DHT22;7681;48.900;9.182;2023-12-22T09:01:47;6.90;99.90
15162;DHT22;7681;48.900;9.182;2023-12-22T09:04:26;6.90;99.90
15162;DHT22;7681;48.900;9.182;2023-12-22T09:07:23;6.90;99.90
15162;DHT22;7681;48.900;9.182;2023-12-22T09:10:01;6.90;99.90
15162;DHT22;7681;48.900;9.182;2023-12-22T09:12:34;6.90;99.90
15162;DHT22;7681;48.900;9.182;2023-12-22T09:15:09;7.00;99.90
15162;DHT22;7681;48.900;9.182;2023-12-22T09:17:55;7.10;99.90
15162;DHT22;7681;48.900;9.182;2023-12-22T09:20:31;7.10;99.90
15162;DHT22;7681;48.900;9.182;2023-12-22T09:23:04;7.20;99.90
15162;DHT22;7681;48.900;9.182;2023-12-22T09:25:36;7.30;99.90
15162;DHT22;7681;48.900;9.182;2023-12-22T09:28:06;7.30;99.90
15162;DHT22;7681;48.900;9.182;2023-12-22T09:30:47;7.30;99.90
15162;DHT22;7681;48.900;9.182;2023-12-22T09:33:17;7.30;99.90
15162;DHT22;7681;48.900;9.182;2023-12-22T09:35:51;7.30;99.90
15162;DHT22;7681;48.900;9.182;2023-12-22T09:38:21;7.30;99.90
15162;DHT22;7681;48.900;9.182;2023-12-22T09:40:54;7.30;99.90
15162;DHT22;7681;48.900;9.182;2023-12-22T09:43:26;7.30;99.90
15162;DHT22;7681;48.900;9.182;2023-12-22T09:45:58;7.40;99.90
15162;DHT22;7681;48.900;9.182;2023-12-22T09:48:40;7.30;99.90
15162;DHT22;7681;48.900;9.182;2023-12-22T09:51:13;7.40;99.90
15162;DHT22;7681;48.900;9.182;2023-12-22T09:53:47;7.40;99.90
15162;DHT22;7681;48.900;9.182;2023-12-22T09:56:20;7.30;99.90
15162;DHT22;7681;48.900;9.182;2023-12-22T09:58:56;7.40;99.90
15162;DHT22;7681;48.900;9.182;2023-12-22T10:01:27;7.50;99.90
15162;DHT22;7681;48.900;9.182;2023-12-22T10:04:00;7.60;99.90
15162;DHT22;7681;48.900;9.182;2023-12-22T10:06:41;7.60;99.90
15162;DHT22;7681;48.900;9.182;2023-12-22T10:09:13;7.60;99.90
15162;DHT22;7681;48.900;9.182;2023-12-22T10:11:52;7.70;99.90
15162;DHT22;7681;48.900;9.182;2023-12-22T10:14:24;7.70;99.90
15162;DHT22;7681;48.900;9.182;2023-12-22T10:17:02;7.70;99.90
15162;DHT22;7681;48.900;9.182;2023-12-22T10:19:32;7.70;99.90
15162;DHT22;7681;48.900;9.182;2023-12-22T10:22:09;7.80;99.90
15162;DHT22;7681;48.900;9.182;2023-12-22T10:24:44;7.90;99.90
15162;DHT22;7681;48.900;9.182;2023-12-22T10:27:19;7.90;99.90
15162;DHT22;7681;48.900;9.182;2023-12-22T10:29:55;8.00;99.90
15162;DHT22;7681;48.900;9.182;2023-12-22T10:32:25;8.00;99.90
15162;DHT22;7681;48.900;9.182;2023-12-22T10:34:58;8.00;99.90
15162;DHT22;7681;48.900;9.182;2023-12-22T10:37:32;8.00;99.90
15162;DHT22;7681;48.900;9.182;2023-12-22T10:40:08;8.10;99.90
15162;DHT22;7681;48.900;9.182;2023-12-22T10:42:42;8.10;99.90
15162;DHT22;7681;48.900;9.182;2023-12-22T10:45:18;8.10;99.90
15162;DHT22;7681;48.900;9.182;2023-12-22T10:47:51;8.10;99.90
15162;DHT22;7681;48.900;9.182;2023-12-22T10:50:21;8.10;99.90
15162;DHT22;7681;48.900;9.182;2023-12-22T10:52:56;8.20;99.90
15162;DHT22;7681;48.900;9.182;2023-12-22T10:55:26;8.20;99.90
15162;DHT22;7681;48.900;9.182;2023-12-22T10:58:09;8.20;99.90
15162;DHT22;7681;48.900;9.182;2023-12-22T11:00:41;8.20;99.90
15162;DHT22;7681;48.900;9.182;2023-12-22T11:03:23;8.50;99.90
15162;DHT22;7681;48.900;9.182;2023-12-22T11:05:58;8.20;99.90
15162;DHT22;7681;48.900;9.182;2023-12-22T11:08:36;8.20;99.90
15162;DHT22;7681;48.900;9.182;2023-12-22T11:11:15;8.20;99.90
15162;DHT22;7681;48.900;9.182;2023-12-22T11:13:46;8.20;99.90
15162;DHT22;7681;48.900;9.182;2023-12-22T11:16:17;8.30;99.90
15162;DHT22;7681;48.900;9.182;2023-12-22T11:18:54;8.30;99.90
15162;DHT22;7681;48.900;9.182;2023-12-22T11:21:25;8.20;99.90
15162;DHT22;7681;48.900;9.182;2023-12-22T11:24:14;8.20;99.90
15162;DHT22;7681;48.900;9.182;2023-12-22T11:26:58;8.30;99.90
15162;DHT22;7681;48.900;9.182;2023-12-22T11:29:36;8.20;99.90
15162;DHT22;7681;48.900;9.182;2023-12-22T11:32:17;8.20;99.90
15162;DHT22;7681;48.900;9.182;2023-12-22T11:35:03;8.00;99.90
15162;DHT22;7681;48.900;9.182;2023-12-22T11:43:15;8.20;99.90
15162;DHT22;7681;48.900;9.182;2023-12-22T11:45:50;8.30;99.90
15162;DHT22;7681;48.900;9.182;2023-12-22T11:48:23;8.20;99.90
15162;DHT22;7681;48.900;9.182;2023-12-22T11:50:54;8.30;99.90
15162;DHT22;7681;48.900;9.182;2023-12-22T11:53:31;8.30;99.90
15162;DHT22;7681;48.900;9.182;2023-12-22T11:56:03;8.30;99.90
15162;DHT22;7681;48.900;9.182;2023-12-22T11:58:41;8.30;99.90
15162;DHT22;7681;48.900;9.182;2023-12-22T12:01:20;8.20;99.90
15162;DHT22;7681;48.900;9.182;2023-12-22T12:03:52;8.20;99.90
15162;DHT22;7681;48.900;9.182;2023-12-22T12:06:31;8.20;99.90
15162;DHT22;7681;48.900;9.182;2023-12-22T12:09:10;8.10;99.90
15162;DHT22;7681;48.900;9.182;2023-12-22T12:12:11;8.10;99.90
15162;DHT22;7681;48.900;9.182;2023-12-22T12:14:45;8.20;99.90
15162;DHT22;7681;48.900;9.182;2023-12-22T12:17:19;8.10;99.90
15162;DHT22;7681;48.900;9.182;2023-12-22T12:19:51;8.20;99.90
15162;DHT22;7681;48.900;9.182;2023-12-22T12:22:24;8.20;99.90
15162;DHT22;7681;48.900;9.182;2023-12-22T12:24:57;8.20;99.90
15162;DHT22;7681;48.900;9.182;2023-12-22T12:27:34;7.50;99.90
15162;DHT22;7681;48.900;9.182;2023-12-22T12:30:13;8.20;99.90
15162;DHT22;7681;48.900;9.182;2023-12-22T12:32:45;8.20;99.90
15162;DHT22;7681;48.900;9.182;2023-12-22T12:35:18;8.20;99.90
15162;DHT22;7681;48.900;9.182;2023-12-22T12:37:53;7.50;99.90
15162;DHT22;7681;48.900;9.182;2023-12-22T12:40:28;8.20;99.90
15162;DHT22;7681;48.900;9.182;2023-12-22T12:43:01;8.20;99.90
15162;DHT22;7681;48.900;9.182;2023-12-22T12:45:37;8.20;99.90
15162;DHT22;7681;48.900;9.182;2023-12-22T12:48:09;8.30;99.90
15162;DHT22;7681;48.900;9.182;2023-12-22T12:50:40;8.20;99.90
15162;DHT22;7681;48.900;9.182;2023-12-22T12:53:10;8.30;99.90
15162;DHT22;7681;48.900;9.182;2023-12-22T12:55:44;8.50;99.90
15162;DHT22;7681;48.900;9.182;2023-12-22T12:58:15;8.40;99.90
15162;DHT22;7681;48.900;9.182;2023-12-22T13:00:49;8.50;99.90
15162;DHT22;7681;48.900;9.182;2023-12-22T13:03:27;8.50;99.90
15162;DHT22;7681;48.900;9.182;2023-12-22T13:06:06;8.80;99.90
15162;DHT22;7681;48.900;9.182;2023-12-22T13:08:36;8.80;99.90
15162;DHT22;7681;48.900;9.182;2023-12-22T13:11:11;8.80;99.90
15162;DHT22;7681;48.900;9.182;2023-12-22T13:13:42;8.60;99.90
15162;DHT22;7681;48.900;9.182;2023-12-22T13:16:18;8.90;99.90
15162;DHT22;7681;48.900;9.182;2023-12-22T13:18:48;8.90;99.90
15162;DHT22;7681;48.900;9.182;2023-12-22T13:21:20;8.90;99.90
15162;DHT22;7681;48.900;9.182;2023-12-22T13:24:08;9.00;99.90
15162;DHT22;7681;48.900;9.182;2023-12-22T13:26:40;8.90;99.90
15162;DHT22;7681;48.900;9.182;2023-12-22T13:29:12;8.90;99.90
15162;DHT22;7681;48.900;9.182;2023-12-22T13:31:48;8.80;99.90
15162;DHT22;7681;48.900;9.182;2023-12-22T13:34:18;9.00;99.90
